createdAt,value
2022-08-17T00:02:01.454Z,20.41
2022-08-17T00:04:34.053Z,20.55
2022-08-17T00:07:00.432Z,20.29
2022-08-17T00:09:26.901Z,20.11
2022-08-17T00:12:41.080Z,20.09
2022-08-17T00:14:39.907Z,19.99
2022-08-17T00:17:06.955Z,20.01
2022-08-17T00:19:34.009Z,20.02
2022-08-17T00:22:32.784Z,20.20
2022-08-17T00:24:49.647Z,20.39
2022-08-17T00:27:16.050Z,20.45
2022-08-17T00:29:42.536Z,20.50
2022-08-17T00:33:14.906Z,20.34
2022-08-17T00:34:55.381Z,20.18
2022-08-17T00:37:21.837Z,20.21
2022-08-17T00:39:48.286Z,20.10
2022-08-17T00:42:17.138Z,20.13
2022-08-17T00:44:45.198Z,19.92
2022-08-17T00:47:11.649Z,19.90
2022-08-17T00:49:38.059Z,19.88
2022-08-17T00:52:15.331Z,19.93
2022-08-17T00:54:44.940Z,19.96
2022-08-17T00:57:18.360Z,19.87
2022-08-17T01:00:01.617Z,19.88
2022-08-17T01:02:52.186Z,19.79
2022-08-17T01:05:23.697Z,19.63
2022-08-17T01:07:53.506Z,19.51
2022-08-17T01:10:59.305Z,19.58
2022-08-17T01:13:12.091Z,19.56
2022-08-17T01:15:41.384Z,19.38
2022-08-17T01:18:14.182Z,19.49
2022-08-17T01:20:53.591Z,19.52
2022-08-17T01:23:23.709Z,19.45
2022-08-17T01:25:52.502Z,19.38
2022-08-17T01:28:52.716Z,19.52
2022-08-17T01:31:09.091Z,19.64
2022-08-17T01:33:35.810Z,19.58
2022-08-17T01:36:03.534Z,19.56
2022-08-17T01:38:31.811Z,19.44
2022-08-17T01:41:06.507Z,19.50
2022-08-17T01:43:39.567Z,19.42
2022-08-17T01:46:06.365Z,19.35
2022-08-17T01:48:35.537Z,19.29
2022-08-17T01:51:02.587Z,19.24
2022-08-17T01:53:34.827Z,19.19
2022-08-17T01:56:14.120Z,19.26
2022-08-17T01:58:42.225Z,19.05
2022-08-17T02:01:10.556Z,19.15
2022-08-17T02:03:38.263Z,19.21
2022-08-17T02:06:26.992Z,19.13
2022-08-17T02:09:01.577Z,19.28
2022-08-17T02:11:29.957Z,19.19
2022-08-17T02:14:01.033Z,19.18
2022-08-17T02:16:37.376Z,19.17
2022-08-17T02:19:13.808Z,19.08
2022-08-17T02:21:42.102Z,19.19
2022-08-17T02:24:11.585Z,19.27
2022-08-17T02:26:38.114Z,19.36
2022-08-17T02:29:04.849Z,19.29
2022-08-17T02:31:31.551Z,19.19
2022-08-17T02:34:04.771Z,18.92
2022-08-17T02:36:34.124Z,18.92
2022-08-17T02:39:06.198Z,19.14
2022-08-17T02:41:32.895Z,19.04
2022-08-17T02:43:59.293Z,19.03
2022-08-17T02:46:26.450Z,19.08
2022-08-17T02:48:52.882Z,19.04
2022-08-17T02:51:19.424Z,18.97
2022-08-17T02:53:46.836Z,19.08
2022-08-17T02:56:13.309Z,19.04
2022-08-17T02:58:39.837Z,18.86
2022-08-17T03:01:08.421Z,18.85
2022-08-17T03:03:35.843Z,18.92
2022-08-17T03:06:02.777Z,18.80
2022-08-17T03:08:29.711Z,18.85
2022-08-17T03:10:56.658Z,19.02
2022-08-17T03:13:23.251Z,19.05
2022-08-17T03:15:50.611Z,18.80
2022-08-17T03:18:24.616Z,18.90
2022-08-17T03:20:58.005Z,18.84
2022-08-17T03:23:25.791Z,18.90
2022-08-17T03:25:53.830Z,19.01
2022-08-17T03:28:21.938Z,19.13
2022-08-17T03:30:48.687Z,19.18
2022-08-17T03:33:16.165Z,19.21
2022-08-17T03:35:42.740Z,19.31
2022-08-17T03:38:11.278Z,19.29
2022-08-17T03:40:56.853Z,19.31
2022-08-17T03:43:28.796Z,19.23
2022-08-17T03:46:28.401Z,19.18
2022-08-17T03:49:18.680Z,19.25
2022-08-17T03:52:03.372Z,19.25
2022-08-17T03:54:48.136Z,19.24
2022-08-17T03:57:14.707Z,19.21
2022-08-17T03:59:41.181Z,19.33
2022-08-17T04:02:18.890Z,19.31
2022-08-17T04:04:45.359Z,19.38
2022-08-17T04:07:11.911Z,19.42
2022-08-17T04:09:38.350Z,19.34
2022-08-17T04:12:05.725Z,19.38
2022-08-17T04:14:53.146Z,19.46
2022-08-17T04:17:23.481Z,19.42
2022-08-17T04:19:50.063Z,19.09
2022-08-17T04:22:33.264Z,19.03
2022-08-17T04:25:19.905Z,19.14
2022-08-17T04:27:46.306Z,19.04
2022-08-17T04:30:12.997Z,19.23
2022-08-17T04:33:07.346Z,19.53
2022-08-17T04:35:42.842Z,19.29
2022-08-17T04:38:12.379Z,19.31
2022-08-17T04:40:58.162Z,19.54
2022-08-17T04:43:27.103Z,19.64
2022-08-17T04:46:00.303Z,19.70
2022-08-17T04:48:36.652Z,19.75
2022-08-17T04:51:22.389Z,19.63
2022-08-17T04:53:54.187Z,19.68
2022-08-17T04:56:21.658Z,19.75
2022-08-17T04:58:51.034Z,19.63
2022-08-17T05:01:24.071Z,19.77
2022-08-17T05:03:52.714Z,19.63
2022-08-17T05:06:19.259Z,19.55
2022-08-17T05:08:45.685Z,19.12
2022-08-17T05:11:12.082Z,19.44
2022-08-17T05:13:38.745Z,19.28
2022-08-17T05:16:05.485Z,19.31
2022-08-17T05:18:32.709Z,19.55
2022-08-17T05:20:59.205Z,19.81
2022-08-17T05:23:27.614Z,19.60
2022-08-17T05:26:09.673Z,19.82
2022-08-17T05:28:38.915Z,20.02
2022-08-17T05:31:06.658Z,20.05
2022-08-17T05:33:39.563Z,20.11
2022-08-17T05:36:11.477Z,20.39
2022-08-17T05:38:58.695Z,20.31
2022-08-17T05:41:25.130Z,20.45
2022-08-17T05:43:56.046Z,20.64
2022-08-17T05:46:26.705Z,20.82
2022-08-17T05:48:57.789Z,20.93
2022-08-17T05:51:50.195Z,21.22
2022-08-17T05:54:31.712Z,21.50
2022-08-17T05:57:06.214Z,21.76
2022-08-17T05:59:42.370Z,21.88
2022-08-17T06:02:20.921Z,22.02
2022-08-17T06:04:53.158Z,21.99
2022-08-17T06:07:25.760Z,21.77
2022-08-17T06:10:19.704Z,21.67
2022-08-17T06:12:49.359Z,21.71
2022-08-17T06:15:15.821Z,22.02
2022-08-17T06:17:43.387Z,22.22
2022-08-17T06:20:13.456Z,22.04
2022-08-17T06:22:53.517Z,21.87
2022-08-17T06:25:35.035Z,21.83
2022-08-17T06:28:14.725Z,21.73
2022-08-17T06:30:59.809Z,21.89
2022-08-17T06:33:35.292Z,21.93
2022-08-17T06:36:34.034Z,21.99
2022-08-17T06:39:24.487Z,21.80
2022-08-17T06:42:54.959Z,21.71
2022-08-17T06:45:05.913Z,21.65
2022-08-17T06:47:36.036Z,21.90
2022-08-17T06:50:14.594Z,21.98
2022-08-17T06:53:05.587Z,22.00
2022-08-17T06:55:56.542Z,22.16
2022-08-17T06:58:29.778Z,22.23
2022-08-17T07:00:59.552Z,22.23
2022-08-17T07:03:37.534Z,22.28
2022-08-17T07:06:12.824Z,22.25
2022-08-17T07:08:51.178Z,22.26
2022-08-17T07:11:27.433Z,22.25
2022-08-17T07:14:01.249Z,22.31
2022-08-17T07:16:41.130Z,22.55
2022-08-17T07:19:10.915Z,22.21
2022-08-17T07:22:02.796Z,22.17
2022-08-17T07:24:47.236Z,22.10
2022-08-17T07:27:32.322Z,22.30
2022-08-17T07:30:11.276Z,22.21
2022-08-17T07:32:48.224Z,22.38
2022-08-17T07:35:21.013Z,22.34
2022-08-17T07:37:52.975Z,22.36
2022-08-17T07:40:29.967Z,22.28
2022-08-17T07:43:11.538Z,22.63
2022-08-17T07:46:17.959Z,22.52
2022-08-17T07:48:49.587Z,22.67
2022-08-17T07:51:36.516Z,23.18
2022-08-17T07:54:27.136Z,22.91
2022-08-17T07:57:13.048Z,22.77
2022-08-17T08:00:01.422Z,22.87
2022-08-17T08:02:38.634Z,22.92
2022-08-17T08:05:46.671Z,22.90
2022-08-17T08:08:23.496Z,23.15
2022-08-17T08:11:03.782Z,23.16
2022-08-17T08:13:32.304Z,23.04
2022-08-17T08:16:16.784Z,22.99
2022-08-17T08:18:55.446Z,23.17
2022-08-17T08:21:48.893Z,23.16
2022-08-17T08:24:37.019Z,22.86
2022-08-17T08:27:14.003Z,23.06
2022-08-17T08:30:14.314Z,23.13
2022-08-17T08:32:45.393Z,23.15
2022-08-17T08:35:26.709Z,23.17
2022-08-17T08:38:20.022Z,23.07
2022-08-17T08:41:01.323Z,23.23
2022-08-17T08:43:36.408Z,23.39
2022-08-17T08:46:21.105Z,23.65
2022-08-17T08:49:12.406Z,23.20
2022-08-17T08:51:55.520Z,23.39
2022-08-17T08:54:37.099Z,23.42
2022-08-17T08:57:24.169Z,23.53
2022-08-17T09:00:18.877Z,23.61
2022-08-17T09:03:14.346Z,23.90
2022-08-17T09:06:32.043Z,24.20
2022-08-17T09:09:09.493Z,24.60
2022-08-17T09:12:02.320Z,24.35
2022-08-17T09:14:43.141Z,24.77
2022-08-17T09:17:38.859Z,24.64
2022-08-17T09:20:27.716Z,24.66
2022-08-17T09:23:14.786Z,24.79
2022-08-17T09:25:50.381Z,24.83
2022-08-17T09:28:28.451Z,24.79
2022-08-17T09:31:02.441Z,24.89
2022-08-17T09:33:34.725Z,24.73
2022-08-17T09:36:18.683Z,24.62
2022-08-17T09:39:03.392Z,24.46
2022-08-17T09:41:48.565Z,24.43
2022-08-17T09:44:27.937Z,24.39
2022-08-17T09:47:00.842Z,24.65
2022-08-17T09:49:49.132Z,24.98
2022-08-17T09:52:25.047Z,24.69
2022-08-17T09:54:54.458Z,24.33
2022-08-17T09:57:43.723Z,24.34
2022-08-17T10:00:19.911Z,24.35
2022-08-17T10:03:00.436Z,24.43
2022-08-17T10:06:07.718Z,24.66
2022-08-17T10:08:57.558Z,24.93
2022-08-17T10:12:06.349Z,25.21
2022-08-17T10:14:44.396Z,25.24
2022-08-17T10:17:34.099Z,25.40
2022-08-17T10:20:06.464Z,25.26
2022-08-17T10:23:05.868Z,25.46
2022-08-17T10:25:55.524Z,25.38
2022-08-17T10:28:29.840Z,25.28
2022-08-17T10:31:33.286Z,25.19
2022-08-17T10:34:09.285Z,25.14
2022-08-17T10:36:55.283Z,25.51
2022-08-17T10:39:51.892Z,25.56
2022-08-17T10:42:46.947Z,25.68
2022-08-17T10:45:36.357Z,26.05
2022-08-17T10:48:06.847Z,26.47
2022-08-17T10:50:49.360Z,26.80
2022-08-17T10:53:49.315Z,27.10
2022-08-17T10:56:17.361Z,27.25
2022-08-17T10:58:53.918Z,27.39
2022-08-17T11:01:32.354Z,27.59
2022-08-17T11:04:07.769Z,27.52
2022-08-17T11:06:52.199Z,27.84
2022-08-17T11:09:52.730Z,27.95
2022-08-17T11:12:48.957Z,27.95
2022-08-17T11:15:50.511Z,28.38
2022-08-17T11:18:48.025Z,28.45
2022-08-17T11:21:38.495Z,28.67
2022-08-17T11:24:40.418Z,28.50
2022-08-17T11:27:28.274Z,28.21
2022-08-17T11:30:02.436Z,28.09
2022-08-17T11:32:54.821Z,28.17
2022-08-17T11:35:21.683Z,28.30
2022-08-17T11:38:16.279Z,28.42
2022-08-17T11:41:09.891Z,28.75
2022-08-17T11:44:11.349Z,28.88
2022-08-17T11:47:23.098Z,28.51
2022-08-17T11:50:37.390Z,28.44
2022-08-17T11:53:04.987Z,28.36
2022-08-17T11:55:35.746Z,28.36
2022-08-17T11:58:37.288Z,28.24
2022-08-17T12:01:33.160Z,28.09
2022-08-17T12:04:35.891Z,28.10
2022-08-17T12:07:30.041Z,27.98
2022-08-17T12:09:57.355Z,28.29
2022-08-17T12:12:33.315Z,28.48
2022-08-17T12:15:16.700Z,28.41
2022-08-17T12:17:53.364Z,28.46
2022-08-17T12:20:32.211Z,28.86
2022-08-17T12:23:14.184Z,28.77
2022-08-17T12:25:40.551Z,29.29
2022-08-17T12:28:23.779Z,29.62
2022-08-17T12:30:51.995Z,29.73
2022-08-17T12:33:25.411Z,29.94
2022-08-17T12:36:04.107Z,29.02
2022-08-17T12:38:34.501Z,29.28
2022-08-17T12:41:25.540Z,29.54
2022-08-17T12:44:27.393Z,29.43
2022-08-17T12:47:19.459Z,29.58
2022-08-17T12:49:53.345Z,29.08
2022-08-17T12:52:19.728Z,29.36
2022-08-17T12:54:57.197Z,29.60
2022-08-17T12:57:32.752Z,29.59
2022-08-17T13:00:07.548Z,29.45
2022-08-17T13:02:53.669Z,29.24
2022-08-17T13:05:35.983Z,29.58
2022-08-17T13:08:28.199Z,29.30
2022-08-17T13:11:01.217Z,29.56
2022-08-17T13:13:32.451Z,28.99
2022-08-17T13:16:05.555Z,29.23
2022-08-17T13:18:47.951Z,29.64
2022-08-17T13:21:22.291Z,29.65
2022-08-17T13:24:01.810Z,29.96
2022-08-17T13:27:07.824Z,29.68
2022-08-17T13:29:38.968Z,29.63
2022-08-17T13:32:13.444Z,29.55
2022-08-17T13:35:12.836Z,29.53
2022-08-17T13:37:36.610Z,29.80
2022-08-17T13:40:22.959Z,30.07
2022-08-17T13:42:54.063Z,30.02
2022-08-17T13:45:35.601Z,30.49
2022-08-17T13:48:11.966Z,30.74
2022-08-17T13:51:12.668Z,30.77
2022-08-17T13:53:40.133Z,30.66
2022-08-17T13:56:37.968Z,30.71
2022-08-17T13:59:02.659Z,30.64
2022-08-17T14:01:40.020Z,30.66
2022-08-17T14:04:09.862Z,30.54
2022-08-17T14:07:08.365Z,30.85
2022-08-17T14:09:51.777Z,30.64
2022-08-17T14:12:21.656Z,30.61
2022-08-17T14:14:49.508Z,30.63
2022-08-17T14:17:15.972Z,31.07
2022-08-17T14:19:42.525Z,31.02
2022-08-17T14:22:18.755Z,31.01
2022-08-17T14:24:45.728Z,30.93
2022-08-17T14:27:12.333Z,31.08
2022-08-17T14:29:41.022Z,30.98
2022-08-17T14:32:17.046Z,30.94
2022-08-17T14:34:44.513Z,30.45
2022-08-17T14:37:11.096Z,30.24
2022-08-17T14:39:37.910Z,30.28
2022-08-17T14:42:04.419Z,30.50
2022-08-17T14:44:30.874Z,30.82
2022-08-17T14:46:57.270Z,30.93
2022-08-17T14:49:25.864Z,30.78
2022-08-17T14:51:52.794Z,30.76
2022-08-17T14:54:32.642Z,30.94
2022-08-17T14:57:23.804Z,31.23
2022-08-17T14:59:51.714Z,31.23
2022-08-17T15:02:23.071Z,31.12
2022-08-17T15:05:03.620Z,30.97
2022-08-17T15:07:30.901Z,30.85
2022-08-17T15:09:58.828Z,30.95
2022-08-17T15:12:32.250Z,30.94
2022-08-17T15:15:00.796Z,30.82
2022-08-17T15:17:27.445Z,30.94
2022-08-17T15:20:15.720Z,30.82
2022-08-17T15:22:43.998Z,30.85
2022-08-17T15:25:11.543Z,30.71
2022-08-17T15:27:38.025Z,30.68
2022-08-17T15:30:07.174Z,30.90
2022-08-17T15:32:38.002Z,30.89
2022-08-17T15:35:06.247Z,30.70
2022-08-17T15:37:33.344Z,30.69
2022-08-17T15:40:02.999Z,30.62
2022-08-17T15:42:29.559Z,30.41
2022-08-17T15:44:56.233Z,30.25
2022-08-17T15:47:23.287Z,30.21
2022-08-17T15:49:50.647Z,29.99
2022-08-17T15:52:25.884Z,30.11
2022-08-17T15:54:55.328Z,30.14
2022-08-17T15:57:23.949Z,30.23
2022-08-17T15:59:55.140Z,29.93
2022-08-17T16:03:45.925Z,30.05
2022-08-17T16:05:20.853Z,29.95
2022-08-17T16:07:48.948Z,30.05
2022-08-17T16:10:19.096Z,29.91
2022-08-17T16:12:47.763Z,30.10
2022-08-17T16:15:14.890Z,29.88
2022-08-17T16:17:41.500Z,30.24
2022-08-17T16:20:09.971Z,30.36
2022-08-17T16:22:47.350Z,30.51
2022-08-17T16:25:18.701Z,30.30
2022-08-17T16:27:46.517Z,30.70
2022-08-17T16:30:17.649Z,30.46
2022-08-17T16:32:44.501Z,30.64
2022-08-17T16:35:14.280Z,30.52
2022-08-17T16:37:45.465Z,30.28
2022-08-17T16:40:13.728Z,30.30
2022-08-17T16:42:40.272Z,30.50
2022-08-17T16:45:13.805Z,30.33
2022-08-17T16:47:41.815Z,30.22
2022-08-17T16:50:11.655Z,30.53
2022-08-17T16:52:38.653Z,30.60
2022-08-17T16:55:07.739Z,30.59
2022-08-17T16:57:37.275Z,30.56
2022-08-17T17:00:15.741Z,30.60
2022-08-17T17:02:49.370Z,30.57
2022-08-17T17:05:43.327Z,30.15
2022-08-17T17:08:13.595Z,30.31
2022-08-17T17:10:47.153Z,30.29
2022-08-17T17:13:40.595Z,30.03
2022-08-17T17:16:44.956Z,30.25
2022-08-17T17:19:35.380Z,30.47
2022-08-17T17:22:37.538Z,30.03
2022-08-17T17:25:12.913Z,29.95
2022-08-17T17:27:58.805Z,29.88
2022-08-17T17:30:47.470Z,29.69
2022-08-17T17:33:24.596Z,29.82
2022-08-17T17:35:58.542Z,29.65
2022-08-17T17:38:31.368Z,29.57
2022-08-17T17:41:08.553Z,29.39
2022-08-17T17:43:40.085Z,29.70
2022-08-17T17:46:27.183Z,29.70
2022-08-17T17:48:59.118Z,29.42
2022-08-17T17:52:03.588Z,29.49
2022-08-17T17:54:43.177Z,29.47
2022-08-17T17:57:29.092Z,29.47
2022-08-17T18:00:14.170Z,29.41
2022-08-17T18:02:53.273Z,29.02
2022-08-17T18:05:28.728Z,29.11
2022-08-17T18:08:11.014Z,28.93
2022-08-17T18:11:09.458Z,28.86
2022-08-17T18:14:20.564Z,28.56
2022-08-17T18:16:55.153Z,28.55
2022-08-17T18:19:24.986Z,28.56
2022-08-17T18:22:01.453Z,28.49
2022-08-17T18:24:33.677Z,28.36
2022-08-17T18:27:08.632Z,28.32
2022-08-17T18:29:49.465Z,28.14
2022-08-17T18:32:35.712Z,28.19
2022-08-17T18:35:27.709Z,28.12
2022-08-17T18:38:20.323Z,28.02
2022-08-17T18:41:00.745Z,28.15
2022-08-17T18:43:52.976Z,28.05
2022-08-17T18:46:28.601Z,27.98
2022-08-17T18:49:02.566Z,28.29
2022-08-17T18:51:40.573Z,28.00
2022-08-17T18:54:25.295Z,27.64
2022-08-17T18:56:57.755Z,27.59
2022-08-17T18:59:29.434Z,27.44
2022-08-17T19:02:15.523Z,27.25
2022-08-17T19:05:10.298Z,26.93
2022-08-17T19:07:45.707Z,26.72
2022-08-17T19:10:28.127Z,26.74
2022-08-17T19:13:12.765Z,26.59
2022-08-17T19:16:12.237Z,26.39
2022-08-17T19:18:43.878Z,26.27
2022-08-17T19:21:14.730Z,26.41
2022-08-17T19:23:53.727Z,26.23
2022-08-17T19:26:54.502Z,26.43
2022-08-17T19:29:34.398Z,26.48
2022-08-17T19:32:01.601Z,26.49
2022-08-17T19:34:34.011Z,26.51
2022-08-17T19:37:12.449Z,26.34
2022-08-17T19:40:02.016Z,26.25
2022-08-17T19:42:47.602Z,26.07
2022-08-17T19:45:21.168Z,26.03
2022-08-17T19:48:25.099Z,25.80
2022-08-17T19:51:17.761Z,25.81
2022-08-17T19:54:05.879Z,25.75
2022-08-17T19:57:08.247Z,25.62
2022-08-17T20:00:05.545Z,25.65
2022-08-17T20:02:46.626Z,25.36
2022-08-17T20:06:11.008Z,25.14
2022-08-17T20:08:38.961Z,25.10
2022-08-17T20:11:26.167Z,25.00
2022-08-17T20:14:00.808Z,24.88
2022-08-17T20:16:27.509Z,24.97
2022-08-17T20:19:04.798Z,25.02
2022-08-17T20:21:37.153Z,24.96
2022-08-17T20:24:21.858Z,25.01
2022-08-17T20:27:12.508Z,24.89
2022-08-17T20:30:00.253Z,24.80
2022-08-17T20:32:35.367Z,24.72
2022-08-17T20:35:26.515Z,24.36
2022-08-17T20:38:01.887Z,24.19
2022-08-17T20:40:39.528Z,24.24
2022-08-17T20:43:45.674Z,24.18
2022-08-17T20:46:20.899Z,24.26
2022-08-17T20:48:52.849Z,24.34
2022-08-17T20:51:39.361Z,24.43
2022-08-17T20:54:17.871Z,24.27
2022-08-17T20:56:44.261Z,24.45
2022-08-17T20:59:25.769Z,24.39
2022-08-17T21:02:18.117Z,24.47
2022-08-17T21:04:52.772Z,24.77
2022-08-17T21:07:42.961Z,24.92
2022-08-17T21:10:21.401Z,24.85
2022-08-17T21:12:59.254Z,24.87
2022-08-17T21:15:43.696Z,24.76
2022-08-17T21:18:10.043Z,24.83
2022-08-17T21:20:56.925Z,25.05
2022-08-17T21:24:00.940Z,25.38
2022-08-17T21:26:50.068Z,25.72
2022-08-17T21:29:32.592Z,25.57
2022-08-17T21:32:03.028Z,25.49
2022-08-17T21:34:43.133Z,25.61
2022-08-17T21:37:18.655Z,25.49
2022-08-17T21:39:53.492Z,25.36
2022-08-17T21:42:26.347Z,25.54
2022-08-17T21:45:15.971Z,25.37
2022-08-17T21:47:52.485Z,25.65
2022-08-17T21:50:24.085Z,25.43
2022-08-17T21:52:55.703Z,25.45
2022-08-17T21:55:30.455Z,25.55
2022-08-17T21:58:14.313Z,25.25
2022-08-17T22:00:44.242Z,25.18
2022-08-17T22:03:23.712Z,25.43
2022-08-17T22:05:51.246Z,25.57
2022-08-17T22:08:20.897Z,25.56
2022-08-17T22:10:50.578Z,25.65
2022-08-17T22:13:17.600Z,25.55
2022-08-17T22:15:50.965Z,25.51
2022-08-17T22:18:22.865Z,25.46
2022-08-17T22:20:56.211Z,25.22
2022-08-17T22:23:55.693Z,25.34
2022-08-17T22:26:25.519Z,25.14
2022-08-17T22:28:56.405Z,25.51
2022-08-17T22:31:24.539Z,25.56
2022-08-17T22:34:01.313Z,25.49
2022-08-17T22:36:38.968Z,25.55
2022-08-17T22:39:11.051Z,25.36
2022-08-17T22:41:51.774Z,25.44
2022-08-17T22:44:31.620Z,25.44
2022-08-17T22:47:16.184Z,25.33
2022-08-17T22:49:53.873Z,25.53
2022-08-17T22:52:33.020Z,25.37
2022-08-17T22:55:32.346Z,25.16
2022-08-17T22:58:18.836Z,25.03
2022-08-17T23:00:48.490Z,24.82
2022-08-17T23:03:24.548Z,24.75
2022-08-17T23:06:08.046Z,24.65
2022-08-17T23:08:43.564Z,24.56
2022-08-17T23:11:09.999Z,24.50
2022-08-17T23:13:37.471Z,24.46
2022-08-17T23:16:04.177Z,24.51
2022-08-17T23:18:30.615Z,24.62
2022-08-17T23:20:57.104Z,24.48
2022-08-17T23:23:24.025Z,24.39
2022-08-17T23:25:50.658Z,24.37
2022-08-17T23:28:17.095Z,24.49
2022-08-17T23:30:44.689Z,24.44
2022-08-17T23:33:21.202Z,24.41
2022-08-17T23:35:47.629Z,24.23
2022-08-17T23:38:14.090Z,24.10
2022-08-17T23:40:40.716Z,24.12
2022-08-17T23:43:23.798Z,24.09
2022-08-17T23:45:54.036Z,24.10
2022-08-17T23:48:28.562Z,24.08
2022-08-17T23:51:09.561Z,24.16
2022-08-17T23:53:40.074Z,24.18
2022-08-17T23:56:09.682Z,24.03
2022-08-17T23:58:38.625Z,23.77
